sensor_id;sensor_type;location;lat;lon;timestamp;P1;durP1;ratioP1;P2;durP2;ratioP2
22715;SDS011;11525;51.152;4.456;2023-07-31T00:00:27;16.90;;;6.97;;
22715;SDS011;11525;51.152;4.456;2023-07-31T00:02:53;19.15;;;6.80;;
22715;SDS011;11525;51.152;4.456;2023-07-31T00:05:20;23.27;;;7.22;;
22715;SDS011;11525;51.152;4.456;2023-07-31T00:07:45;15.48;;;6.93;;
22715;SDS011;11525;51.152;4.456;2023-07-31T00:10:11;21.77;;;6.43;;
22715;SDS011;11525;51.152;4.456;2023-07-31T00:12:37;21.00;;;6.57;;
22715;SDS011;11525;51.152;4.456;2023-07-31T00:15:04;23.27;;;7.30;;
22715;SDS011;11525;51.152;4.456;2023-07-31T00:17:31;16.67;;;6.60;;
22715;SDS011;11525;51.152;4.456;2023-07-31T00:19:57;25.45;;;8.07;;
22715;SDS011;11525;51.152;4.456;2023-07-31T00:22:22;22.80;;;7.70;;
22715;SDS011;11525;51.152;4.456;2023-07-31T00:24:48;20.33;;;6.85;;
22715;SDS011;11525;51.152;4.456;2023-07-31T00:27:14;19.70;;;7.35;;
22715;SDS011;11525;51.152;4.456;2023-07-31T00:29:39;14.48;;;7.93;;
22715;SDS011;11525;51.152;4.456;2023-07-31T00:32:05;26.00;;;7.10;;
22715;SDS011;11525;51.152;4.456;2023-07-31T00:34:31;17.65;;;7.18;;
22715;SDS011;11525;51.152;4.456;2023-07-31T00:36:57;20.13;;;7.82;;
22715;SDS011;11525;51.152;4.456;2023-07-31T00:39:23;16.70;;;7.55;;
22715;SDS011;11525;51.152;4.456;2023-07-31T00:41:48;21.23;;;7.50;;
22715;SDS011;11525;51.152;4.456;2023-07-31T00:44:14;17.90;;;7.47;;
22715;SDS011;11525;51.152;4.456;2023-07-31T00:46:40;20.90;;;7.82;;
22715;SDS011;11525;51.152;4.456;2023-07-31T00:49:06;24.08;;;7.82;;
22715;SDS011;11525;51.152;4.456;2023-07-31T00:51:32;19.80;;;6.90;;
22715;SDS011;11525;51.152;4.456;2023-07-31T00:53:58;23.40;;;8.30;;
22715;SDS011;11525;51.152;4.456;2023-07-31T00:56:24;16.33;;;7.30;;
22715;SDS011;11525;51.152;4.456;2023-07-31T00:58:51;16.83;;;7.25;;
22715;SDS011;11525;51.152;4.456;2023-07-31T01:01:16;24.92;;;7.25;;
22715;SDS011;11525;51.152;4.456;2023-07-31T01:03:42;20.48;;;7.63;;
22715;SDS011;11525;51.152;4.456;2023-07-31T01:06:15;26.15;;;7.70;;
22715;SDS011;11525;51.152;4.456;2023-07-31T01:12:00;23.13;;;7.45;;
22715;SDS011;11525;51.152;4.456;2023-07-31T01:14:28;16.63;;;7.53;;
22715;SDS011;11525;51.152;4.456;2023-07-31T01:16:54;21.13;;;8.43;;
22715;SDS011;11525;51.152;4.456;2023-07-31T01:19:24;24.05;;;7.80;;
22715;SDS011;11525;51.152;4.456;2023-07-31T01:28:01;22.52;;;7.93;;
22715;SDS011;11525;51.152;4.456;2023-07-31T01:30:34;17.60;;;6.55;;
22715;SDS011;11525;51.152;4.456;2023-07-31T01:33:03;19.42;;;8.02;;
22715;SDS011;11525;51.152;4.456;2023-07-31T01:35:35;16.38;;;6.57;;
22715;SDS011;11525;51.152;4.456;2023-07-31T01:38:02;19.75;;;7.35;;
22715;SDS011;11525;51.152;4.456;2023-07-31T01:40:28;17.63;;;6.60;;
22715;SDS011;11525;51.152;4.456;2023-07-31T01:42:54;22.30;;;6.97;;
22715;SDS011;11525;51.152;4.456;2023-07-31T01:45:19;19.90;;;7.63;;
22715;SDS011;11525;51.152;4.456;2023-07-31T01:47:45;19.95;;;7.53;;
22715;SDS011;11525;51.152;4.456;2023-07-31T01:50:11;18.95;;;7.22;;
22715;SDS011;11525;51.152;4.456;2023-07-31T01:52:36;22.35;;;7.15;;
22715;SDS011;11525;51.152;4.456;2023-07-31T01:55:02;17.30;;;6.60;;
22715;SDS011;11525;51.152;4.456;2023-07-31T01:57:28;17.50;;;7.90;;
22715;SDS011;11525;51.152;4.456;2023-07-31T01:59:53;19.73;;;7.57;;
22715;SDS011;11525;51.152;4.456;2023-07-31T02:02:19;20.17;;;7.00;;
22715;SDS011;11525;51.152;4.456;2023-07-31T02:04:45;18.95;;;8.18;;
22715;SDS011;11525;51.152;4.456;2023-07-31T02:07:12;16.52;;;6.70;;
22715;SDS011;11525;51.152;4.456;2023-07-31T02:09:37;18.05;;;7.07;;
22715;SDS011;11525;51.152;4.456;2023-07-31T02:12:03;16.85;;;6.25;;
22715;SDS011;11525;51.152;4.456;2023-07-31T02:14:29;25.55;;;7.60;;
22715;SDS011;11525;51.152;4.456;2023-07-31T02:16:54;23.15;;;7.28;;
22715;SDS011;11525;51.152;4.456;2023-07-31T02:19:20;19.60;;;6.65;;
22715;SDS011;11525;51.152;4.456;2023-07-31T02:21:46;21.45;;;7.00;;
22715;SDS011;11525;51.152;4.456;2023-07-31T02:24:11;21.33;;;7.05;;
22715;SDS011;11525;51.152;4.456;2023-07-31T02:26:37;21.38;;;7.20;;
22715;SDS011;11525;51.152;4.456;2023-07-31T02:29:02;17.90;;;6.80;;
22715;SDS011;11525;51.152;4.456;2023-07-31T02:31:28;17.83;;;6.18;;
22715;SDS011;11525;51.152;4.456;2023-07-31T02:33:54;20.13;;;6.75;;
22715;SDS011;11525;51.152;4.456;2023-07-31T02:36:19;22.00;;;7.05;;
22715;SDS011;11525;51.152;4.456;2023-07-31T02:38:45;22.50;;;6.65;;
22715;SDS011;11525;51.152;4.456;2023-07-31T02:41:10;20.83;;;7.35;;
22715;SDS011;11525;51.152;4.456;2023-07-31T02:43:36;21.25;;;6.85;;
22715;SDS011;11525;51.152;4.456;2023-07-31T02:46:02;20.63;;;7.28;;
22715;SDS011;11525;51.152;4.456;2023-07-31T02:48:27;16.33;;;5.75;;
22715;SDS011;11525;51.152;4.456;2023-07-31T02:50:53;17.55;;;6.30;;
22715;SDS011;11525;51.152;4.456;2023-07-31T02:53:19;22.20;;;7.10;;
22715;SDS011;11525;51.152;4.456;2023-07-31T02:55:45;15.25;;;6.95;;
22715;SDS011;11525;51.152;4.456;2023-07-31T02:58:10;15.48;;;6.65;;
22715;SDS011;11525;51.152;4.456;2023-07-31T03:00:36;20.15;;;6.82;;
22715;SDS011;11525;51.152;4.456;2023-07-31T03:03:07;21.13;;;6.70;;
22715;SDS011;11525;51.152;4.456;2023-07-31T03:05:33;16.33;;;6.22;;
22715;SDS011;11525;51.152;4.456;2023-07-31T03:07:59;14.80;;;6.75;;
22715;SDS011;11525;51.152;4.456;2023-07-31T03:10:24;18.92;;;6.78;;
22715;SDS011;11525;51.152;4.456;2023-07-31T03:12:50;19.38;;;7.30;;
22715;SDS011;11525;51.152;4.456;2023-07-31T03:15:15;20.38;;;6.85;;
22715;SDS011;11525;51.152;4.456;2023-07-31T03:17:41;18.60;;;6.55;;
22715;SDS011;11525;51.152;4.456;2023-07-31T03:20:07;19.45;;;7.75;;
22715;SDS011;11525;51.152;4.456;2023-07-31T03:22:33;17.23;;;6.45;;
22715;SDS011;11525;51.152;4.456;2023-07-31T03:25:00;22.42;;;6.88;;
22715;SDS011;11525;51.152;4.456;2023-07-31T03:27:26;19.17;;;6.65;;
22715;SDS011;11525;51.152;4.456;2023-07-31T03:29:52;18.88;;;6.20;;
22715;SDS011;11525;51.152;4.456;2023-07-31T03:32:17;14.85;;;6.35;;
22715;SDS011;11525;51.152;4.456;2023-07-31T03:34:43;19.80;;;6.60;;
22715;SDS011;11525;51.152;4.456;2023-07-31T03:37:09;16.15;;;6.45;;
22715;SDS011;11525;51.152;4.456;2023-07-31T03:39:35;18.25;;;6.55;;
22715;SDS011;11525;51.152;4.456;2023-07-31T03:42:00;18.45;;;7.13;;
22715;SDS011;11525;51.152;4.456;2023-07-31T03:44:26;18.17;;;7.45;;
22715;SDS011;11525;51.152;4.456;2023-07-31T03:46:52;20.77;;;6.63;;
22715;SDS011;11525;51.152;4.456;2023-07-31T03:49:17;21.27;;;7.25;;
22715;SDS011;11525;51.152;4.456;2023-07-31T03:51:43;16.67;;;7.18;;
22715;SDS011;11525;51.152;4.456;2023-07-31T03:54:09;16.92;;;7.35;;
22715;SDS011;11525;51.152;4.456;2023-07-31T03:56:35;16.55;;;7.68;;
22715;SDS011;11525;51.152;4.456;2023-07-31T03:59:01;19.20;;;7.38;;
22715;SDS011;11525;51.152;4.456;2023-07-31T04:01:26;19.58;;;7.43;;
22715;SDS011;11525;51.152;4.456;2023-07-31T04:03:52;18.83;;;7.35;;
22715;SDS011;11525;51.152;4.456;2023-07-31T04:06:17;17.15;;;7.07;;
22715;SDS011;11525;51.152;4.456;2023-07-31T04:08:43;17.83;;;6.90;;
22715;SDS011;11525;51.152;4.456;2023-07-31T04:11:10;15.40;;;7.28;;
22715;SDS011;11525;51.152;4.456;2023-07-31T04:13:36;12.60;;;7.32;;
22715;SDS011;11525;51.152;4.456;2023-07-31T04:16:02;17.83;;;6.97;;
22715;SDS011;11525;51.152;4.456;2023-07-31T04:18:28;12.55;;;6.85;;
22715;SDS011;11525;51.152;4.456;2023-07-31T04:20:55;15.40;;;6.50;;
22715;SDS011;11525;51.152;4.456;2023-07-31T04:23:23;12.88;;;6.75;;
22715;SDS011;11525;51.152;4.456;2023-07-31T04:25:49;14.65;;;7.10;;
22715;SDS011;11525;51.152;4.456;2023-07-31T04:28:15;14.68;;;6.80;;
22715;SDS011;11525;51.152;4.456;2023-07-31T04:30:40;15.55;;;6.68;;
22715;SDS011;11525;51.152;4.456;2023-07-31T04:33:06;13.80;;;7.30;;
22715;SDS011;11525;51.152;4.456;2023-07-31T04:35:32;16.25;;;7.95;;
22715;SDS011;11525;51.152;4.456;2023-07-31T04:37:57;17.55;;;7.25;;
22715;SDS011;11525;51.152;4.456;2023-07-31T04:40:23;13.95;;;7.45;;
22715;SDS011;11525;51.152;4.456;2023-07-31T04:42:49;12.80;;;7.30;;
22715;SDS011;11525;51.152;4.456;2023-07-31T04:45:14;15.45;;;7.57;;
22715;SDS011;11525;51.152;4.456;2023-07-31T04:47:40;19.30;;;7.60;;
22715;SDS011;11525;51.152;4.456;2023-07-31T04:50:06;14.70;;;7.68;;
22715;SDS011;11525;51.152;4.456;2023-07-31T04:52:32;13.07;;;6.88;;
22715;SDS011;11525;51.152;4.456;2023-07-31T04:54:57;18.80;;;7.60;;
22715;SDS011;11525;51.152;4.456;2023-07-31T04:57:23;16.65;;;6.18;;
22715;SDS011;11525;51.152;4.456;2023-07-31T04:59:49;12.80;;;7.10;;
22715;SDS011;11525;51.152;4.456;2023-07-31T05:02:14;13.18;;;6.85;;
22715;SDS011;11525;51.152;4.456;2023-07-31T05:04:40;9.75;;;6.75;;
22715;SDS011;11525;51.152;4.456;2023-07-31T05:07:06;13.27;;;6.55;;
22715;SDS011;11525;51.152;4.456;2023-07-31T05:09:31;14.40;;;7.05;;
22715;SDS011;11525;51.152;4.456;2023-07-31T05:11:57;9.85;;;6.30;;
22715;SDS011;11525;51.152;4.456;2023-07-31T05:14:23;15.80;;;7.32;;
22715;SDS011;11525;51.152;4.456;2023-07-31T05:16:48;14.38;;;7.00;;
22715;SDS011;11525;51.152;4.456;2023-07-31T05:19:14;12.18;;;6.75;;
22715;SDS011;11525;51.152;4.456;2023-07-31T05:21:40;13.05;;;7.65;;
22715;SDS011;11525;51.152;4.456;2023-07-31T05:24:05;11.27;;;7.00;;
22715;SDS011;11525;51.152;4.456;2023-07-31T05:26:31;16.73;;;8.07;;
22715;SDS011;11525;51.152;4.456;2023-07-31T05:28:57;13.98;;;7.43;;
22715;SDS011;11525;51.152;4.456;2023-07-31T05:31:23;16.30;;;8.25;;
22715;SDS011;11525;51.152;4.456;2023-07-31T05:33:49;18.10;;;7.47;;
22715;SDS011;11525;51.152;4.456;2023-07-31T05:36:15;11.52;;;7.25;;
22715;SDS011;11525;51.152;4.456;2023-07-31T05:38:42;13.80;;;7.28;;
22715;SDS011;11525;51.152;4.456;2023-07-31T05:41:09;13.50;;;7.53;;
22715;SDS011;11525;51.152;4.456;2023-07-31T05:43:36;11.60;;;7.78;;
22715;SDS011;11525;51.152;4.456;2023-07-31T05:46:01;11.88;;;7.90;;
22715;SDS011;11525;51.152;4.456;2023-07-31T05:48:27;19.40;;;7.47;;
22715;SDS011;11525;51.152;4.456;2023-07-31T05:50:52;17.63;;;9.38;;
22715;SDS011;11525;51.152;4.456;2023-07-31T05:53:18;11.88;;;7.55;;
22715;SDS011;11525;51.152;4.456;2023-07-31T05:55:44;13.52;;;7.50;;
22715;SDS011;11525;51.152;4.456;2023-07-31T05:58:09;15.68;;;8.10;;
22715;SDS011;11525;51.152;4.456;2023-07-31T06:00:35;13.38;;;7.90;;
22715;SDS011;11525;51.152;4.456;2023-07-31T06:03:01;17.20;;;7.15;;
22715;SDS011;11525;51.152;4.456;2023-07-31T06:05:27;10.25;;;7.65;;
22715;SDS011;11525;51.152;4.456;2023-07-31T06:07:54;12.02;;;7.72;;
22715;SDS011;11525;51.152;4.456;2023-07-31T06:10:20;10.32;;;7.28;;
22715;SDS011;11525;51.152;4.456;2023-07-31T06:12:46;13.45;;;8.07;;
22715;SDS011;11525;51.152;4.456;2023-07-31T06:15:12;11.23;;;7.30;;
22715;SDS011;11525;51.152;4.456;2023-07-31T06:17:37;12.73;;;7.78;;
22715;SDS011;11525;51.152;4.456;2023-07-31T06:20:03;9.68;;;6.95;;
22715;SDS011;11525;51.152;4.456;2023-07-31T06:22:31;13.65;;;6.90;;
22715;SDS011;11525;51.152;4.456;2023-07-31T06:24:56;13.77;;;6.63;;
22715;SDS011;11525;51.152;4.456;2023-07-31T06:27:23;12.55;;;6.68;;
22715;SDS011;11525;51.152;4.456;2023-07-31T06:29:48;10.05;;;6.68;;
22715;SDS011;11525;51.152;4.456;2023-07-31T06:32:14;12.40;;;7.20;;
22715;SDS011;11525;51.152;4.456;2023-07-31T06:34:40;9.65;;;5.55;;
22715;SDS011;11525;51.152;4.456;2023-07-31T06:37:05;10.52;;;6.15;;
22715;SDS011;11525;51.152;4.456;2023-07-31T06:39:31;10.52;;;5.75;;
22715;SDS011;11525;51.152;4.456;2023-07-31T06:41:57;11.70;;;6.53;;
22715;SDS011;11525;51.152;4.456;2023-07-31T06:44:22;14.50;;;6.63;;
22715;SDS011;11525;51.152;4.456;2023-07-31T06:46:48;12.38;;;5.90;;
22715;SDS011;11525;51.152;4.456;2023-07-31T06:49:14;11.38;;;5.38;;
22715;SDS011;11525;51.152;4.456;2023-07-31T06:51:42;8.23;;;5.60;;
22715;SDS011;11525;51.152;4.456;2023-07-31T06:54:09;10.00;;;5.63;;
22715;SDS011;11525;51.152;4.456;2023-07-31T06:56:34;13.45;;;5.85;;
22715;SDS011;11525;51.152;4.456;2023-07-31T06:59:00;9.93;;;5.47;;
22715;SDS011;11525;51.152;4.456;2023-07-31T07:01:26;7.82;;;4.60;;
22715;SDS011;11525;51.152;4.456;2023-07-31T07:03:53;9.32;;;6.13;;
22715;SDS011;11525;51.152;4.456;2023-07-31T07:06:19;11.40;;;5.93;;
22715;SDS011;11525;51.152;4.456;2023-07-31T07:08:45;10.40;;;4.50;;
22715;SDS011;11525;51.152;4.456;2023-07-31T07:11:10;11.73;;;5.72;;
22715;SDS011;11525;51.152;4.456;2023-07-31T07:13:36;10.32;;;5.70;;
22715;SDS011;11525;51.152;4.456;2023-07-31T07:16:02;10.52;;;5.30;;
22715;SDS011;11525;51.152;4.456;2023-07-31T07:18:27;9.88;;;6.50;;
22715;SDS011;11525;51.152;4.456;2023-07-31T07:20:53;10.52;;;5.40;;
22715;SDS011;11525;51.152;4.456;2023-07-31T07:23:19;11.10;;;6.07;;
22715;SDS011;11525;51.152;4.456;2023-07-31T07:25:46;10.45;;;5.25;;
22715;SDS011;11525;51.152;4.456;2023-07-31T07:28:12;12.93;;;5.60;;
22715;SDS011;11525;51.152;4.456;2023-07-31T07:30:39;10.93;;;5.70;;
22715;SDS011;11525;51.152;4.456;2023-07-31T07:33:05;11.40;;;5.78;;
22715;SDS011;11525;51.152;4.456;2023-07-31T07:35:34;9.77;;;5.75;;
22715;SDS011;11525;51.152;4.456;2023-07-31T07:38:01;13.85;;;5.63;;
22715;SDS011;11525;51.152;4.456;2023-07-31T07:40:27;9.43;;;5.72;;
22715;SDS011;11525;51.152;4.456;2023-07-31T07:42:53;11.30;;;6.45;;
22715;SDS011;11525;51.152;4.456;2023-07-31T07:45:19;9.75;;;5.13;;
22715;SDS011;11525;51.152;4.456;2023-07-31T07:47:44;9.38;;;5.65;;
22715;SDS011;11525;51.152;4.456;2023-07-31T07:50:10;9.52;;;5.45;;
22715;SDS011;11525;51.152;4.456;2023-07-31T07:52:35;9.82;;;5.43;;
22715;SDS011;11525;51.152;4.456;2023-07-31T07:55:01;10.55;;;5.45;;
22715;SDS011;11525;51.152;4.456;2023-07-31T07:57:28;10.35;;;5.93;;
22715;SDS011;11525;51.152;4.456;2023-07-31T07:59:54;11.13;;;4.93;;
22715;SDS011;11525;51.152;4.456;2023-07-31T08:02:20;8.88;;;4.82;;
22715;SDS011;11525;51.152;4.456;2023-07-31T08:04:45;9.77;;;4.70;;
22715;SDS011;11525;51.152;4.456;2023-07-31T08:07:11;8.98;;;4.65;;
22715;SDS011;11525;51.152;4.456;2023-07-31T08:09:37;8.77;;;4.40;;
22715;SDS011;11525;51.152;4.456;2023-07-31T08:12:03;7.97;;;4.07;;
22715;SDS011;11525;51.152;4.456;2023-07-31T08:14:30;11.45;;;4.75;;
22715;SDS011;11525;51.152;4.456;2023-07-31T08:16:56;11.27;;;4.85;;
22715;SDS011;11525;51.152;4.456;2023-07-31T08:19:22;9.38;;;4.30;;
22715;SDS011;11525;51.152;4.456;2023-07-31T08:21:47;9.95;;;5.25;;
22715;SDS011;11525;51.152;4.456;2023-07-31T08:24:13;12.38;;;5.20;;
22715;SDS011;11525;51.152;4.456;2023-07-31T08:26:38;8.73;;;4.68;;
22715;SDS011;11525;51.152;4.456;2023-07-31T08:29:04;9.55;;;4.38;;
22715;SDS011;11525;51.152;4.456;2023-07-31T08:31:30;6.57;;;4.40;;
22715;SDS011;11525;51.152;4.456;2023-07-31T08:33:55;9.25;;;4.90;;
22715;SDS011;11525;51.152;4.456;2023-07-31T08:36:21;7.57;;;4.32;;
22715;SDS011;11525;51.152;4.456;2023-07-31T08:38:47;8.23;;;4.32;;
22715;SDS011;11525;51.152;4.456;2023-07-31T08:41:13;11.00;;;4.70;;
22715;SDS011;11525;51.152;4.456;2023-07-31T08:43:38;9.18;;;4.07;;
22715;SDS011;11525;51.152;4.456;2023-07-31T08:46:05;8.65;;;3.58;;
22715;SDS011;11525;51.152;4.456;2023-07-31T08:48:31;7.25;;;3.85;;
22715;SDS011;11525;51.152;4.456;2023-07-31T08:50:57;10.93;;;4.28;;
22715;SDS011;11525;51.152;4.456;2023-07-31T08:53:23;7.18;;;3.78;;
22715;SDS011;11525;51.152;4.456;2023-07-31T08:55:48;14.07;;;4.13;;
22715;SDS011;11525;51.152;4.456;2023-07-31T08:58:15;6.18;;;3.80;;
22715;SDS011;11525;51.152;4.456;2023-07-31T09:00:42;7.45;;;3.97;;
22715;SDS011;11525;51.152;4.456;2023-07-31T09:03:17;10.50;;;3.78;;
22715;SDS011;11525;51.152;4.456;2023-07-31T09:05:44;9.15;;;3.97;;
22715;SDS011;11525;51.152;4.456;2023-07-31T09:08:11;6.82;;;3.85;;
22715;SDS011;11525;51.152;4.456;2023-07-31T09:10:40;6.68;;;3.40;;
22715;SDS011;11525;51.152;4.456;2023-07-31T09:13:11;8.38;;;3.38;;
22715;SDS011;11525;51.152;4.456;2023-07-31T09:15:37;10.45;;;3.97;;
22715;SDS011;11525;51.152;4.456;2023-07-31T09:18:05;8.57;;;3.60;;
22715;SDS011;11525;51.152;4.456;2023-07-31T09:20:31;5.55;;;2.92;;
22715;SDS011;11525;51.152;4.456;2023-07-31T09:23:04;6.28;;;3.83;;
22715;SDS011;11525;51.152;4.456;2023-07-31T09:25:35;8.65;;;3.35;;
22715;SDS011;11525;51.152;4.456;2023-07-31T09:28:02;7.97;;;3.70;;
22715;SDS011;11525;51.152;4.456;2023-07-31T09:30:43;7.63;;;4.13;;
22715;SDS011;11525;51.152;4.456;2023-07-31T09:33:14;5.68;;;3.15;;
22715;SDS011;11525;51.152;4.456;2023-07-31T09:35:40;5.68;;;3.65;;
22715;SDS011;11525;51.152;4.456;2023-07-31T09:38:06;12.07;;;3.38;;
22715;SDS011;11525;51.152;4.456;2023-07-31T09:40:35;11.63;;;4.80;;
22715;SDS011;11525;51.152;4.456;2023-07-31T09:43:09;6.80;;;3.80;;
22715;SDS011;11525;51.152;4.456;2023-07-31T09:45:38;7.53;;;3.50;;
22715;SDS011;11525;51.152;4.456;2023-07-31T09:48:23;8.82;;;6.15;;
22715;SDS011;11525;51.152;4.456;2023-07-31T09:50:51;8.27;;;3.88;;
22715;SDS011;11525;51.152;4.456;2023-07-31T09:53:18;9.18;;;4.75;;
22715;SDS011;11525;51.152;4.456;2023-07-31T09:55:43;8.65;;;4.30;;
22715;SDS011;11525;51.152;4.456;2023-07-31T09:58:10;6.88;;;4.00;;
22715;SDS011;11525;51.152;4.456;2023-07-31T10:00:38;8.15;;;4.45;;
22715;SDS011;11525;51.152;4.456;2023-07-31T10:03:07;7.88;;;4.22;;
22715;SDS011;11525;51.152;4.456;2023-07-31T10:05:35;7.97;;;4.72;;
22715;SDS011;11525;51.152;4.456;2023-07-31T10:08:01;9.85;;;5.15;;
22715;SDS011;11525;51.152;4.456;2023-07-31T10:10:27;8.02;;;4.75;;
22715;SDS011;11525;51.152;4.456;2023-07-31T10:12:54;10.25;;;4.30;;
22715;SDS011;11525;51.152;4.456;2023-07-31T10:15:21;9.75;;;3.65;;
22715;SDS011;11525;51.152;4.456;2023-07-31T10:17:48;8.57;;;4.22;;
22715;SDS011;11525;51.152;4.456;2023-07-31T10:20:15;8.68;;;4.00;;
22715;SDS011;11525;51.152;4.456;2023-07-31T10:22:42;7.88;;;3.85;;
22715;SDS011;11525;51.152;4.456;2023-07-31T10:25:09;6.68;;;3.85;;
22715;SDS011;11525;51.152;4.456;2023-07-31T10:27:35;8.40;;;3.80;;
22715;SDS011;11525;51.152;4.456;2023-07-31T10:30:01;7.07;;;3.08;;
22715;SDS011;11525;51.152;4.456;2023-07-31T10:32:30;5.88;;;3.50;;
22715;SDS011;11525;51.152;4.456;2023-07-31T10:34:57;7.15;;;3.78;;
22715;SDS011;11525;51.152;4.456;2023-07-31T10:37:24;6.75;;;4.22;;
22715;SDS011;11525;51.152;4.456;2023-07-31T10:40:11;6.65;;;4.18;;
22715;SDS011;11525;51.152;4.456;2023-07-31T10:42:47;5.50;;;3.88;;
22715;SDS011;11525;51.152;4.456;2023-07-31T10:45:23;7.53;;;3.80;;
22715;SDS011;11525;51.152;4.456;2023-07-31T10:47:51;5.45;;;3.90;;
22715;SDS011;11525;51.152;4.456;2023-07-31T10:50:27;9.98;;;5.15;;
22715;SDS011;11525;51.152;4.456;2023-07-31T10:52:55;8.63;;;5.13;;
22715;SDS011;11525;51.152;4.456;2023-07-31T10:58:08;14.73;;;4.90;;
22715;SDS011;11525;51.152;4.456;2023-07-31T11:00:42;9.30;;;4.97;;
22715;SDS011;11525;51.152;4.456;2023-07-31T11:03:09;8.50;;;4.93;;
22715;SDS011;11525;51.152;4.456;2023-07-31T11:05:59;11.15;;;5.38;;
22715;SDS011;11525;51.152;4.456;2023-07-31T11:08:26;7.85;;;5.10;;
22715;SDS011;11525;51.152;4.456;2023-07-31T11:13:31;8.75;;;5.40;;
22715;SDS011;11525;51.152;4.456;2023-07-31T11:15:58;12.38;;;5.35;;
22715;SDS011;11525;51.152;4.456;2023-07-31T11:18:25;9.35;;;4.97;;
22715;SDS011;11525;51.152;4.456;2023-07-31T11:20:52;6.97;;;5.03;;
22715;SDS011;11525;51.152;4.456;2023-07-31T11:23:19;11.57;;;5.93;;
22715;SDS011;11525;51.152;4.456;2023-07-31T11:25:45;12.25;;;5.85;;
22715;SDS011;11525;51.152;4.456;2023-07-31T11:28:11;9.93;;;5.60;;
22715;SDS011;11525;51.152;4.456;2023-07-31T11:30:39;13.20;;;5.78;;
22715;SDS011;11525;51.152;4.456;2023-07-31T11:33:09;8.63;;;5.05;;
22715;SDS011;11525;51.152;4.456;2023-07-31T11:35:45;7.25;;;5.35;;
22715;SDS011;11525;51.152;4.456;2023-07-31T11:38:20;10.18;;;5.03;;
22715;SDS011;11525;51.152;4.456;2023-07-31T11:40:55;6.78;;;4.85;;
22715;SDS011;11525;51.152;4.456;2023-07-31T11:43:22;9.25;;;5.20;;
22715;SDS011;11525;51.152;4.456;2023-07-31T11:45:49;13.85;;;5.60;;
22715;SDS011;11525;51.152;4.456;2023-07-31T11:48:27;9.43;;;5.10;;
22715;SDS011;11525;51.152;4.456;2023-07-31T11:50:59;11.98;;;5.97;;
22715;SDS011;11525;51.152;4.456;2023-07-31T11:53:36;11.20;;;5.57;;
22715;SDS011;11525;51.152;4.456;2023-07-31T11:56:06;11.95;;;5.10;;
22715;SDS011;11525;51.152;4.456;2023-07-31T11:58:34;14.10;;;5.30;;
22715;SDS011;11525;51.152;4.456;2023-07-31T12:01:00;13.10;;;5.28;;
22715;SDS011;11525;51.152;4.456;2023-07-31T12:03:27;14.23;;;5.03;;
22715;SDS011;11525;51.152;4.456;2023-07-31T12:05:53;11.82;;;5.07;;
22715;SDS011;11525;51.152;4.456;2023-07-31T12:08:20;11.35;;;5.97;;
22715;SDS011;11525;51.152;4.456;2023-07-31T12:10:49;9.30;;;5.60;;
22715;SDS011;11525;51.152;4.456;2023-07-31T12:13:22;9.45;;;5.68;;
22715;SDS011;11525;51.152;4.456;2023-07-31T12:15:54;10.65;;;5.32;;
22715;SDS011;11525;51.152;4.456;2023-07-31T12:18:22;13.88;;;5.32;;
22715;SDS011;11525;51.152;4.456;2023-07-31T12:20:54;9.57;;;4.75;;
22715;SDS011;11525;51.152;4.456;2023-07-31T12:23:21;7.57;;;5.32;;
22715;SDS011;11525;51.152;4.456;2023-07-31T12:28:34;10.85;;;5.32;;
22715;SDS011;11525;51.152;4.456;2023-07-31T12:31:07;11.98;;;4.88;;
22715;SDS011;11525;51.152;4.456;2023-07-31T12:33:42;9.82;;;4.88;;
22715;SDS011;11525;51.152;4.456;2023-07-31T12:36:18;10.13;;;5.00;;
22715;SDS011;11525;51.152;4.456;2023-07-31T12:38:46;9.60;;;5.15;;
22715;SDS011;11525;51.152;4.456;2023-07-31T12:41:11;12.65;;;5.22;;
22715;SDS011;11525;51.152;4.456;2023-07-31T12:43:39;11.35;;;5.28;;
22715;SDS011;11525;51.152;4.456;2023-07-31T12:46:06;9.13;;;4.82;;
22715;SDS011;11525;51.152;4.456;2023-07-31T12:48:35;8.80;;;4.90;;
22715;SDS011;11525;51.152;4.456;2023-07-31T12:51:02;8.85;;;4.85;;
22715;SDS011;11525;51.152;4.456;2023-07-31T12:53:28;10.45;;;5.05;;
22715;SDS011;11525;51.152;4.456;2023-07-31T12:55:54;11.88;;;5.10;;
22715;SDS011;11525;51.152;4.456;2023-07-31T12:58:21;11.68;;;5.30;;
22715;SDS011;11525;51.152;4.456;2023-07-31T13:00:46;9.20;;;4.90;;
22715;SDS011;11525;51.152;4.456;2023-07-31T13:03:12;11.15;;;5.05;;
22715;SDS011;11525;51.152;4.456;2023-07-31T13:05:38;13.65;;;5.47;;
22715;SDS011;11525;51.152;4.456;2023-07-31T13:08:03;13.23;;;5.15;;
22715;SDS011;11525;51.152;4.456;2023-07-31T13:10:29;11.75;;;5.20;;
22715;SDS011;11525;51.152;4.456;2023-07-31T13:12:55;8.70;;;4.47;;
22715;SDS011;11525;51.152;4.456;2023-07-31T13:15:21;11.18;;;5.28;;
22715;SDS011;11525;51.152;4.456;2023-07-31T13:17:46;8.50;;;4.75;;
22715;SDS011;11525;51.152;4.456;2023-07-31T13:20:12;10.25;;;4.55;;
22715;SDS011;11525;51.152;4.456;2023-07-31T13:22:38;10.50;;;4.13;;
22715;SDS011;11525;51.152;4.456;2023-07-31T13:25:04;11.93;;;5.28;;
22715;SDS011;11525;51.152;4.456;2023-07-31T13:27:30;15.63;;;4.75;;
22715;SDS011;11525;51.152;4.456;2023-07-31T13:29:56;9.18;;;4.82;;
22715;SDS011;11525;51.152;4.456;2023-07-31T13:32:21;11.07;;;5.30;;
22715;SDS011;11525;51.152;4.456;2023-07-31T13:34:47;12.77;;;5.28;;
22715;SDS011;11525;51.152;4.456;2023-07-31T13:37:14;9.15;;;4.95;;
22715;SDS011;11525;51.152;4.456;2023-07-31T13:39:40;6.30;;;5.00;;
22715;SDS011;11525;51.152;4.456;2023-07-31T13:42:07;7.45;;;4.25;;
22715;SDS011;11525;51.152;4.456;2023-07-31T13:44:36;7.30;;;3.85;;
22715;SDS011;11525;51.152;4.456;2023-07-31T13:47:03;7.30;;;3.58;;
22715;SDS011;11525;51.152;4.456;2023-07-31T13:49:29;6.85;;;3.08;;
22715;SDS011;11525;51.152;4.456;2023-07-31T13:51:55;7.82;;;3.15;;
22715;SDS011;11525;51.152;4.456;2023-07-31T13:54:22;6.13;;;2.90;;
22715;SDS011;11525;51.152;4.456;2023-07-31T13:56:48;8.48;;;3.40;;
22715;SDS011;11525;51.152;4.456;2023-07-31T13:59:13;8.70;;;3.45;;
22715;SDS011;11525;51.152;4.456;2023-07-31T14:01:41;6.47;;;3.22;;
22715;SDS011;11525;51.152;4.456;2023-07-31T14:04:07;4.38;;;2.95;;
22715;SDS011;11525;51.152;4.456;2023-07-31T14:06:33;4.97;;;2.65;;
22715;SDS011;11525;51.152;4.456;2023-07-31T14:08:59;5.35;;;2.88;;
22715;SDS011;11525;51.152;4.456;2023-07-31T14:11:25;3.60;;;3.08;;
22715;SDS011;11525;51.152;4.456;2023-07-31T14:13:51;6.85;;;3.40;;
22715;SDS011;11525;51.152;4.456;2023-07-31T14:16:17;5.28;;;2.60;;
22715;SDS011;11525;51.152;4.456;2023-07-31T14:18:43;8.07;;;3.25;;
22715;SDS011;11525;51.152;4.456;2023-07-31T14:21:10;6.68;;;2.95;;
22715;SDS011;11525;51.152;4.456;2023-07-31T14:23:36;4.95;;;2.63;;
22715;SDS011;11525;51.152;4.456;2023-07-31T14:26:02;4.07;;;2.63;;
22715;SDS011;11525;51.152;4.456;2023-07-31T14:28:27;6.45;;;2.83;;
22715;SDS011;11525;51.152;4.456;2023-07-31T14:30:53;3.70;;;2.78;;
22715;SDS011;11525;51.152;4.456;2023-07-31T14:33:19;6.53;;;3.03;;
22715;SDS011;11525;51.152;4.456;2023-07-31T14:35:44;3.88;;;3.17;;
22715;SDS011;11525;51.152;4.456;2023-07-31T14:38:10;4.40;;;2.95;;
22715;SDS011;11525;51.152;4.456;2023-07-31T14:40:36;5.22;;;3.38;;
22715;SDS011;11525;51.152;4.456;2023-07-31T14:43:03;4.13;;;2.95;;
22715;SDS011;11525;51.152;4.456;2023-07-31T14:45:29;6.30;;;3.60;;
22715;SDS011;11525;51.152;4.456;2023-07-31T14:47:55;6.22;;;3.67;;
22715;SDS011;11525;51.152;4.456;2023-07-31T14:50:20;5.50;;;3.90;;
22715;SDS011;11525;51.152;4.456;2023-07-31T14:52:48;8.00;;;3.70;;